createdAt,value
2023-05-05T00:01:15.667Z,15.95
2023-05-05T00:03:42.638Z,15.98
2023-05-05T00:06:09.507Z,15.97
2023-05-05T00:08:36.065Z,15.97
2023-05-05T00:11:02.752Z,15.97
2023-05-05T00:13:29.348Z,15.97
2023-05-05T00:15:55.983Z,15.96
2023-05-05T00:18:22.665Z,15.91
2023-05-05T00:20:49.337Z,15.93
2023-05-05T00:23:16.436Z,15.88
2023-05-05T00:25:44.469Z,15.87
2023-05-05T00:28:11.174Z,15.86
2023-05-05T00:30:39.849Z,15.81
2023-05-05T00:33:06.753Z,15.81
2023-05-05T00:35:34.327Z,15.78
2023-05-05T00:38:01.132Z,15.77
2023-05-05T00:40:27.735Z,15.75
2023-05-05T00:42:54.302Z,15.70
2023-05-05T00:45:23.900Z,15.69
2023-05-05T00:47:58.762Z,15.67
2023-05-05T00:50:30.978Z,15.66
2023-05-05T00:53:06.476Z,15.65
2023-05-05T00:55:34.916Z,15.65
2023-05-05T00:58:03.915Z,15.63
2023-05-05T01:00:30.670Z,15.64
2023-05-05T01:02:57.567Z,15.61
2023-05-05T01:05:27.678Z,15.63
2023-05-05T01:08:32.331Z,15.58
2023-05-05T01:11:07.753Z,15.56
2023-05-05T01:13:49.851Z,15.57
2023-05-05T01:16:16.328Z,15.53
2023-05-05T01:18:58.255Z,15.55
2023-05-05T01:21:31.298Z,15.53
2023-05-05T01:24:19.380Z,15.54
2023-05-05T01:26:59.556Z,15.57
2023-05-05T01:30:17.495Z,15.59
2023-05-05T01:32:51.790Z,15.61
2023-05-05T01:35:24.276Z,15.66
2023-05-05T01:38:00.390Z,15.71
2023-05-05T01:40:33.483Z,15.76
2023-05-05T01:43:04.646Z,15.73
2023-05-05T01:45:37.829Z,15.78
2023-05-05T01:48:08.508Z,15.84
2023-05-05T01:50:37.156Z,15.88
2023-05-05T01:53:06.277Z,15.87
2023-05-05T01:55:35.604Z,15.91
2023-05-05T01:58:04.271Z,15.96
2023-05-05T02:00:33.024Z,15.99
2023-05-05T02:03:04.378Z,16.04
2023-05-05T02:05:33.715Z,16.05
2023-05-05T02:08:05.660Z,16.13
2023-05-05T02:10:32.928Z,16.14
2023-05-05T02:13:04.162Z,16.15
2023-05-05T02:15:33.538Z,16.18
2023-05-05T02:18:05.632Z,16.19
2023-05-05T02:20:33.285Z,16.18
2023-05-05T02:23:00.416Z,16.17
2023-05-05T02:25:36.937Z,16.14
2023-05-05T02:28:07.342Z,16.12
2023-05-05T02:30:37.786Z,16.10
2023-05-05T02:33:11.267Z,16.09
2023-05-05T02:35:41.257Z,16.06
2023-05-05T02:38:17.124Z,16.05
2023-05-05T02:40:47.495Z,16.03
2023-05-05T02:43:19.546Z,15.97
2023-05-05T02:45:46.363Z,15.94
2023-05-05T02:48:13.220Z,15.89
2023-05-05T02:50:42.238Z,15.82
2023-05-05T02:53:09.038Z,15.76
2023-05-05T02:55:44.292Z,15.70
2023-05-05T02:58:37.185Z,15.62
2023-05-05T03:01:25.466Z,15.53
2023-05-05T03:04:30.472Z,15.46
2023-05-05T03:06:59.693Z,15.34
2023-05-05T03:09:36.765Z,15.31
2023-05-05T03:12:08.198Z,15.26
2023-05-05T03:14:41.814Z,15.18
2023-05-05T03:17:12.145Z,15.12
2023-05-05T03:19:43.533Z,15.08
2023-05-05T03:22:11.133Z,15.04
2023-05-05T03:24:37.697Z,14.99
2023-05-05T03:27:04.272Z,14.93
2023-05-05T03:29:30.986Z,14.85
2023-05-05T03:31:58.801Z,14.83
2023-05-05T03:34:26.353Z,14.80
2023-05-05T03:36:52.878Z,14.71
2023-05-05T03:39:19.440Z,14.73
2023-05-05T03:41:45.951Z,14.66
2023-05-05T03:44:12.759Z,14.66
2023-05-05T03:46:39.289Z,14.64
2023-05-05T03:49:05.775Z,14.59
2023-05-05T03:51:32.529Z,14.60
2023-05-05T03:53:59.102Z,14.55
2023-05-05T03:56:25.650Z,14.52
2023-05-05T03:58:52.498Z,14.49
2023-05-05T04:01:18.990Z,14.48
2023-05-05T04:03:46.078Z,14.48
2023-05-05T04:06:12.792Z,14.46
2023-05-05T04:08:39.302Z,14.44
2023-05-05T04:11:05.798Z,14.43
2023-05-05T04:13:32.369Z,14.42
2023-05-05T04:16:00.179Z,14.41
2023-05-05T04:18:27.027Z,14.40
2023-05-05T04:20:53.607Z,14.38
2023-05-05T04:23:20.165Z,14.39
2023-05-05T04:25:47.310Z,14.32
2023-05-05T04:28:13.890Z,14.35
2023-05-05T04:30:40.688Z,14.34
2023-05-05T04:33:08.689Z,14.34
2023-05-05T04:35:35.332Z,14.34
2023-05-05T04:38:02.922Z,14.32
2023-05-05T04:40:29.574Z,14.32
2023-05-05T04:42:56.132Z,14.34
2023-05-05T04:45:22.758Z,14.33
2023-05-05T04:47:49.624Z,14.30
2023-05-05T04:50:16.579Z,14.32
2023-05-05T04:52:43.125Z,14.34
2023-05-05T04:55:11.718Z,14.34
2023-05-05T04:57:38.404Z,14.33
2023-05-05T05:00:06.555Z,14.35
2023-05-05T05:02:33.337Z,14.36
2023-05-05T05:04:59.969Z,14.35
2023-05-05T05:07:26.717Z,14.35
2023-05-05T05:09:53.400Z,14.34
2023-05-05T05:12:20.022Z,14.35
2023-05-05T05:14:46.584Z,14.38
2023-05-05T05:17:13.115Z,14.39
2023-05-05T05:19:39.697Z,14.39
2023-05-05T05:22:06.262Z,14.45
2023-05-05T05:24:34.659Z,14.48
2023-05-05T05:27:01.305Z,14.48
2023-05-05T05:29:27.839Z,14.50
2023-05-05T05:31:54.513Z,14.50
2023-05-05T05:34:21.155Z,14.53
2023-05-05T05:36:47.692Z,14.56
2023-05-05T05:39:14.253Z,14.60
2023-05-05T05:41:40.792Z,14.64
2023-05-05T05:44:07.364Z,14.67
2023-05-05T05:46:34.006Z,14.73
2023-05-05T05:49:00.679Z,14.74
2023-05-05T05:51:27.817Z,14.81
2023-05-05T05:53:55.101Z,14.84
2023-05-05T05:56:22.889Z,14.91
2023-05-05T05:58:49.391Z,14.95
2023-05-05T06:01:16.019Z,15.01
2023-05-05T06:03:42.724Z,15.08
2023-05-05T06:06:09.355Z,15.11
2023-05-05T06:08:37.169Z,15.17
2023-05-05T06:11:03.688Z,15.24
2023-05-05T06:13:30.472Z,15.46
2023-05-05T06:15:59.892Z,15.75
2023-05-05T06:18:26.510Z,16.13
2023-05-05T06:20:53.155Z,16.51
2023-05-05T06:23:19.756Z,16.97
2023-05-05T06:25:46.679Z,17.37
2023-05-05T06:28:13.260Z,17.84
2023-05-05T06:30:39.867Z,18.15
2023-05-05T06:33:06.468Z,18.51
2023-05-05T06:35:34.097Z,18.90
2023-05-05T06:38:00.777Z,19.13
2023-05-05T06:40:27.320Z,19.32
2023-05-05T06:42:53.937Z,19.61
2023-05-05T06:45:20.518Z,19.98
2023-05-05T06:47:47.115Z,20.26
2023-05-05T06:50:13.693Z,20.46
2023-05-05T06:52:41.100Z,20.80
2023-05-05T06:55:08.038Z,20.99
2023-05-05T06:57:34.582Z,21.12
2023-05-05T07:00:01.298Z,21.39
2023-05-05T07:02:27.910Z,21.46
2023-05-05T07:04:55.463Z,21.79
2023-05-05T07:07:22.481Z,22.00
2023-05-05T07:09:49.061Z,22.18
2023-05-05T07:12:15.782Z,22.58
2023-05-05T07:14:42.338Z,23.02
2023-05-05T07:17:08.830Z,22.91
2023-05-05T07:19:35.320Z,23.17
2023-05-05T07:22:04.572Z,23.32
2023-05-05T07:24:31.114Z,23.12
2023-05-05T07:26:57.830Z,23.11
2023-05-05T07:29:24.384Z,22.71
2023-05-05T07:31:51.980Z,22.91
2023-05-05T07:34:18.501Z,23.14
2023-05-05T07:36:45.052Z,23.15
2023-05-05T07:39:14.884Z,23.30
2023-05-05T07:41:42.314Z,23.63
2023-05-05T07:44:08.919Z,23.69
2023-05-05T07:46:35.528Z,23.78
2023-05-05T07:49:02.134Z,23.97
2023-05-05T07:51:28.729Z,24.07
2023-05-05T07:53:55.922Z,24.06
2023-05-05T07:56:22.529Z,23.97
2023-05-05T07:58:49.066Z,23.98
2023-05-05T08:01:15.941Z,24.08
2023-05-05T08:03:42.725Z,24.37
2023-05-05T08:06:10.327Z,24.20
2023-05-05T08:08:37.134Z,24.63
2023-05-05T08:11:06.269Z,24.50
2023-05-05T08:13:34.511Z,24.91
2023-05-05T08:16:01.225Z,25.12
2023-05-05T08:18:29.325Z,25.38
2023-05-05T08:20:55.925Z,25.23
2023-05-05T08:23:22.520Z,25.01
2023-05-05T08:25:49.723Z,25.24
2023-05-05T08:28:16.205Z,25.23
2023-05-05T08:30:42.877Z,25.37
2023-05-05T08:33:09.507Z,25.68
2023-05-05T08:35:36.151Z,25.94
2023-05-05T08:38:02.821Z,25.75
2023-05-05T08:40:34.949Z,25.27
2023-05-05T08:43:01.684Z,24.95
2023-05-05T08:45:29.219Z,24.57
2023-05-05T08:48:05.145Z,24.40
2023-05-05T08:50:33.074Z,24.24
2023-05-05T08:53:47.015Z,23.86
2023-05-05T08:56:15.576Z,23.80
2023-05-05T08:58:43.191Z,23.71
2023-05-05T09:01:11.478Z,23.54
2023-05-05T09:03:39.030Z,23.54
2023-05-05T09:06:07.300Z,23.32
2023-05-05T09:08:34.146Z,23.10
2023-05-05T09:11:02.042Z,22.93
2023-05-05T09:13:30.034Z,22.94
2023-05-05T09:15:57.226Z,22.94
2023-05-05T09:18:23.782Z,22.80
2023-05-05T09:20:50.401Z,22.69
2023-05-05T09:23:20.805Z,22.58
2023-05-05T09:26:07.965Z,22.46
2023-05-05T09:28:34.492Z,22.54
2023-05-05T09:31:15.953Z,22.37
2023-05-05T09:33:43.409Z,22.38
2023-05-05T09:36:10.075Z,22.38
2023-05-05T09:38:36.825Z,22.25
2023-05-05T09:41:05.273Z,22.37
2023-05-05T09:43:50.147Z,22.24
2023-05-05T09:46:16.818Z,22.27
2023-05-05T09:48:43.450Z,22.11
2023-05-05T09:51:10.094Z,21.95
2023-05-05T09:53:41.743Z,21.93
2023-05-05T09:56:08.751Z,21.89
2023-05-05T09:58:35.648Z,21.84
2023-05-05T10:01:02.246Z,21.89
2023-05-05T10:03:28.862Z,21.83
2023-05-05T10:05:57.574Z,21.80
2023-05-05T10:08:27.196Z,21.79
2023-05-05T10:10:56.528Z,21.75
2023-05-05T10:13:24.612Z,21.71
2023-05-05T10:15:57.189Z,21.27
2023-05-05T10:18:27.159Z,20.87
2023-05-05T10:21:02.262Z,20.46
2023-05-05T10:23:49.662Z,19.95
2023-05-05T10:26:22.224Z,19.37
2023-05-05T10:28:56.045Z,19.12
2023-05-05T10:31:58.539Z,18.87
2023-05-05T10:34:38.496Z,18.72
2023-05-05T10:37:06.763Z,18.53
2023-05-05T10:39:36.192Z,18.46
2023-05-05T10:42:05.271Z,18.38
2023-05-05T10:44:33.154Z,18.34
2023-05-05T10:47:01.801Z,18.32
2023-05-05T10:49:40.600Z,18.14
2023-05-05T10:52:52.457Z,18.06
2023-05-05T10:55:37.617Z,17.90
2023-05-05T10:58:04.218Z,17.84
2023-05-05T11:00:39.662Z,17.78
2023-05-05T11:03:18.400Z,17.71
2023-05-05T11:06:03.573Z,17.58
2023-05-05T11:08:38.393Z,17.48
2023-05-05T11:11:05.616Z,17.37
2023-05-05T11:13:32.316Z,17.33
2023-05-05T11:16:02.128Z,17.26
2023-05-05T11:18:44.398Z,17.26
2023-05-05T11:21:17.008Z,17.15
2023-05-05T11:23:51.624Z,17.12
2023-05-05T11:26:53.765Z,17.10
2023-05-05T11:29:20.749Z,17.14
2023-05-05T11:32:10.443Z,17.09
2023-05-05T11:34:49.404Z,16.97
2023-05-05T11:37:17.091Z,16.94
2023-05-05T11:40:10.115Z,17.01
2023-05-05T11:42:36.942Z,16.96
2023-05-05T11:45:23.044Z,16.90
2023-05-05T11:47:50.026Z,16.89
2023-05-05T11:50:19.173Z,16.85
2023-05-05T11:52:45.821Z,16.77
2023-05-05T11:55:12.659Z,16.68
2023-05-05T11:57:39.321Z,16.65
2023-05-05T12:00:10.721Z,16.59
2023-05-05T12:02:37.734Z,16.57
2023-05-05T12:05:04.971Z,16.54
2023-05-05T12:07:33.919Z,16.55
2023-05-05T12:10:02.008Z,16.51
2023-05-05T12:12:40.655Z,16.52
2023-05-05T12:15:10.162Z,16.45
2023-05-05T12:17:48.001Z,16.39
2023-05-05T12:20:14.647Z,16.38
2023-05-05T12:22:45.119Z,16.44
2023-05-05T12:25:11.677Z,16.43
2023-05-05T12:27:38.775Z,16.44
2023-05-05T12:30:15.913Z,16.43
2023-05-05T12:32:43.091Z,16.43
2023-05-05T12:35:10.605Z,16.44
2023-05-05T12:37:38.506Z,16.40
2023-05-05T12:40:06.459Z,16.41
2023-05-05T12:42:38.897Z,16.32
2023-05-05T12:45:07.030Z,16.38
2023-05-05T12:47:33.899Z,16.30
2023-05-05T12:50:02.878Z,16.35
2023-05-05T12:52:44.301Z,16.37
2023-05-05T12:55:11.628Z,16.42
2023-05-05T12:57:39.627Z,16.43
2023-05-05T13:00:14.825Z,16.46
2023-05-05T13:02:41.534Z,16.44
2023-05-05T13:05:08.677Z,16.46
2023-05-05T13:07:35.401Z,16.46
2023-05-05T13:10:10.516Z,16.52
2023-05-05T13:12:37.588Z,16.51
2023-05-05T13:15:06.628Z,16.50
2023-05-05T13:17:34.800Z,16.41
2023-05-05T13:20:01.487Z,16.40
2023-05-05T13:22:27.977Z,16.40
2023-05-05T13:24:54.468Z,16.38
2023-05-05T13:27:21.194Z,16.35
2023-05-05T13:29:48.078Z,16.27
2023-05-05T13:32:14.811Z,16.27
2023-05-05T13:34:42.507Z,16.24
2023-05-05T13:37:09.162Z,16.24
2023-05-05T13:39:36.819Z,16.24
2023-05-05T13:42:03.351Z,16.16
2023-05-05T13:44:29.905Z,16.17
2023-05-05T13:46:56.496Z,16.13
2023-05-05T13:49:23.716Z,16.05
2023-05-05T13:51:50.693Z,16.02
2023-05-05T13:54:17.268Z,15.98
2023-05-05T13:56:43.963Z,15.96
2023-05-05T13:59:10.597Z,15.94
2023-05-05T14:01:37.454Z,15.93
2023-05-05T14:04:05.687Z,15.91
2023-05-05T14:06:33.475Z,15.95
2023-05-05T14:09:01.177Z,15.92
2023-05-05T14:11:27.784Z,15.90
2023-05-05T14:13:54.779Z,15.85
2023-05-05T14:16:21.404Z,15.87
2023-05-05T14:18:48.115Z,15.80
2023-05-05T14:21:14.637Z,15.75
2023-05-05T14:23:41.233Z,15.73
2023-05-05T14:26:08.982Z,15.74
2023-05-05T14:28:35.920Z,15.77
2023-05-05T14:31:02.445Z,15.81
2023-05-05T14:33:28.947Z,15.83
2023-05-05T14:35:55.686Z,15.83
2023-05-05T14:38:22.336Z,15.83
2023-05-05T14:40:48.938Z,15.83
2023-05-05T14:43:15.588Z,15.79
2023-05-05T14:45:42.318Z,15.75
2023-05-05T14:48:09.063Z,15.72
2023-05-05T14:50:36.934Z,15.68
2023-05-05T14:53:03.568Z,15.71
2023-05-05T14:55:30.152Z,15.79
2023-05-05T14:57:56.676Z,15.82
2023-05-05T15:00:23.345Z,15.89
2023-05-05T15:02:49.961Z,16.03
2023-05-05T15:05:16.644Z,16.11
2023-05-05T15:07:43.231Z,16.19
2023-05-05T15:10:10.520Z,16.16
2023-05-05T15:12:37.117Z,16.11
2023-05-05T15:15:04.503Z,16.09
2023-05-05T15:17:31.782Z,16.02
2023-05-05T15:19:58.431Z,15.98
2023-05-05T15:22:24.985Z,15.91
2023-05-05T15:24:51.534Z,15.90
2023-05-05T15:27:18.515Z,15.86
2023-05-05T15:29:45.269Z,15.92
2023-05-05T15:32:11.963Z,15.95
2023-05-05T15:34:38.558Z,15.98
2023-05-05T15:37:05.718Z,16.00
2023-05-05T15:39:38.596Z,16.01
2023-05-05T15:42:05.601Z,16.05
2023-05-05T15:44:32.169Z,16.11
2023-05-05T15:46:58.835Z,16.14
2023-05-05T15:49:25.440Z,16.14
2023-05-05T15:51:52.184Z,16.10
2023-05-05T15:54:18.741Z,16.05
2023-05-05T15:56:45.332Z,16.03
2023-05-05T15:59:11.929Z,16.02
2023-05-05T16:01:38.688Z,16.06
2023-05-05T16:04:05.519Z,16.03
2023-05-05T16:06:32.090Z,16.02
2023-05-05T16:08:58.711Z,16.05
2023-05-05T16:11:26.516Z,16.07
2023-05-05T16:13:53.372Z,16.09
2023-05-05T16:16:22.240Z,16.13
2023-05-05T16:18:48.860Z,16.15
2023-05-05T16:21:15.513Z,16.15
2023-05-05T16:23:42.145Z,16.22
2023-05-05T16:26:08.813Z,16.31
2023-05-05T16:28:35.587Z,16.38
2023-05-05T16:31:02.419Z,16.35
2023-05-05T16:33:29.381Z,16.36
2023-05-05T16:35:56.136Z,16.33
2023-05-05T16:38:23.044Z,16.34
2023-05-05T16:40:49.626Z,16.27
2023-05-05T16:43:16.438Z,16.29
2023-05-05T16:45:43.453Z,16.27
2023-05-05T16:48:10.031Z,16.29
2023-05-05T16:50:36.621Z,16.25
2023-05-05T16:53:03.730Z,16.25
2023-05-05T16:55:30.812Z,16.27
2023-05-05T16:57:57.374Z,16.20
2023-05-05T17:00:23.907Z,16.17
2023-05-05T17:02:50.484Z,16.20
2023-05-05T17:05:17.855Z,16.18
2023-05-05T17:07:51.713Z,16.16
2023-05-05T17:10:18.425Z,16.16
2023-05-05T17:12:45.067Z,16.16
2023-05-05T17:15:11.899Z,16.16
2023-05-05T17:17:38.792Z,16.15
2023-05-05T17:20:06.880Z,16.12
2023-05-05T17:22:33.449Z,16.12
2023-05-05T17:24:59.971Z,16.13
2023-05-05T17:27:26.621Z,16.13
2023-05-05T17:29:53.626Z,16.10
2023-05-05T17:32:20.522Z,16.12
2023-05-05T17:34:47.433Z,16.15
2023-05-05T17:37:14.038Z,16.14
2023-05-05T17:39:40.550Z,16.13
2023-05-05T17:42:07.195Z,16.12
2023-05-05T17:44:33.736Z,16.11
2023-05-05T17:47:00.378Z,16.08
2023-05-05T17:49:26.880Z,16.06
2023-05-05T17:51:56.038Z,16.03
2023-05-05T17:54:22.533Z,16.03
2023-05-05T17:56:49.124Z,15.99
2023-05-05T17:59:15.628Z,15.94
2023-05-05T18:01:47.281Z,15.90
2023-05-05T18:04:13.835Z,15.88
2023-05-05T18:06:40.663Z,15.84
2023-05-05T18:09:07.793Z,15.82
2023-05-05T18:11:35.875Z,15.77
2023-05-05T18:14:03.596Z,15.76
2023-05-05T18:16:30.989Z,15.73
2023-05-05T18:18:57.498Z,15.72
2023-05-05T18:21:24.135Z,15.66
2023-05-05T18:23:57.252Z,15.65
2023-05-05T18:26:28.386Z,15.61
2023-05-05T18:28:54.930Z,15.59
2023-05-05T18:31:21.726Z,15.55
2023-05-05T18:33:48.377Z,15.52
2023-05-05T18:36:15.257Z,15.47
2023-05-05T18:38:41.825Z,15.43
2023-05-05T18:41:08.347Z,15.39
2023-05-05T18:43:34.915Z,15.31
2023-05-05T18:46:01.439Z,15.24
2023-05-05T18:48:27.988Z,15.18
2023-05-05T18:50:54.674Z,15.12
2023-05-05T18:53:21.313Z,15.04
2023-05-05T18:55:50.848Z,14.97
2023-05-05T18:58:17.565Z,14.92
2023-05-05T19:00:45.410Z,14.86
2023-05-05T19:03:12.016Z,14.81
2023-05-05T19:05:40.588Z,14.74
2023-05-05T19:08:07.208Z,14.67
2023-05-05T19:10:33.764Z,14.58
2023-05-05T19:13:00.723Z,14.53
2023-05-05T19:15:27.497Z,14.47
2023-05-05T19:17:54.691Z,14.42
2023-05-05T19:20:21.938Z,14.34
2023-05-05T19:22:48.627Z,14.27
2023-05-05T19:25:16.286Z,14.20
2023-05-05T19:27:43.361Z,14.14
2023-05-05T19:30:10.617Z,14.08
2023-05-05T19:32:37.237Z,14.02
2023-05-05T19:35:04.027Z,13.99
2023-05-05T19:37:31.178Z,13.91
2023-05-05T19:39:57.684Z,13.87
2023-05-05T19:42:24.271Z,13.87
2023-05-05T19:44:51.123Z,13.80
2023-05-05T19:47:17.949Z,13.76
2023-05-05T19:49:44.497Z,13.71
2023-05-05T19:52:11.063Z,13.67
2023-05-05T19:54:38.141Z,13.62
2023-05-05T19:57:05.181Z,13.58
2023-05-05T19:59:31.768Z,13.55
2023-05-05T20:01:58.338Z,13.49
2023-05-05T20:04:24.965Z,13.45
2023-05-05T20:06:53.870Z,13.41
2023-05-05T20:09:20.413Z,13.37
2023-05-05T20:11:47.043Z,13.34
2023-05-05T20:14:13.616Z,13.29
2023-05-05T20:16:40.971Z,13.26
2023-05-05T20:19:07.533Z,13.21
2023-05-05T20:21:34.909Z,13.17
2023-05-05T20:24:01.752Z,13.13
2023-05-05T20:26:28.530Z,13.07
2023-05-05T20:28:55.132Z,13.04
2023-05-05T20:31:21.808Z,13.02
2023-05-05T20:33:48.453Z,12.99
2023-05-05T20:36:15.461Z,12.99
2023-05-05T20:38:43.383Z,12.94
2023-05-05T20:41:10.141Z,12.93
2023-05-05T20:43:37.011Z,12.91
2023-05-05T20:46:03.641Z,12.89
2023-05-05T20:48:30.213Z,12.86
2023-05-05T20:50:58.814Z,12.84
2023-05-05T20:53:25.529Z,12.82
2023-05-05T20:55:52.120Z,12.78
2023-05-05T20:58:18.670Z,12.75
2023-05-05T21:00:45.315Z,12.74
2023-05-05T21:03:12.123Z,12.75
2023-05-05T21:05:40.070Z,12.72
2023-05-05T21:08:06.856Z,12.68
2023-05-05T21:10:33.684Z,12.65
2023-05-05T21:13:02.332Z,12.63
2023-05-05T21:15:29.150Z,12.59
2023-05-05T21:17:59.463Z,12.55
2023-05-05T21:20:26.157Z,12.50
2023-05-05T21:22:52.780Z,12.49
2023-05-05T21:25:21.097Z,12.47
2023-05-05T21:27:48.903Z,12.44
2023-05-05T21:30:17.695Z,12.42
2023-05-05T21:32:44.613Z,12.40
2023-05-05T21:35:11.310Z,12.38
2023-05-05T21:37:40.184Z,12.33
2023-05-05T21:40:13.389Z,12.29
2023-05-05T21:42:41.135Z,12.26
2023-05-05T21:45:08.332Z,12.23
2023-05-05T21:47:35.004Z,12.19
2023-05-05T21:50:02.344Z,12.14
2023-05-05T21:52:29.054Z,12.11
2023-05-05T21:54:55.892Z,12.07
2023-05-05T21:57:22.460Z,12.04
2023-05-05T21:59:49.457Z,12.01
2023-05-05T22:02:16.176Z,11.97
2023-05-05T22:04:42.829Z,11.94
2023-05-05T22:07:09.325Z,11.90
2023-05-05T22:09:35.909Z,11.87
2023-05-05T22:12:02.630Z,11.85
2023-05-05T22:14:29.227Z,11.85
2023-05-05T22:16:56.040Z,11.80
2023-05-05T22:19:22.661Z,11.77
2023-05-05T22:21:49.177Z,11.75
2023-05-05T22:24:15.793Z,11.74
2023-05-05T22:26:43.337Z,11.72
2023-05-05T22:29:10.973Z,11.74
2023-05-05T22:31:37.993Z,11.73
2023-05-05T22:34:04.764Z,11.73
2023-05-05T22:36:31.470Z,11.74
2023-05-05T22:38:58.227Z,11.71
2023-05-05T22:41:24.919Z,11.70
2023-05-05T22:43:51.500Z,11.70
2023-05-05T22:46:18.019Z,11.70
2023-05-05T22:48:44.539Z,11.71
2023-05-05T22:51:11.303Z,11.74
2023-05-05T22:53:38.844Z,11.75
2023-05-05T22:56:06.233Z,11.77
2023-05-05T22:58:32.757Z,11.79
2023-05-05T23:00:59.596Z,11.81
2023-05-05T23:03:26.203Z,11.84
2023-05-05T23:05:52.831Z,11.85
2023-05-05T23:08:20.310Z,11.89
2023-05-05T23:10:46.887Z,11.92
2023-05-05T23:13:13.475Z,11.94
2023-05-05T23:15:40.848Z,11.95
2023-05-05T23:18:07.433Z,11.99
2023-05-05T23:20:33.982Z,12.00
2023-05-05T23:23:00.814Z,11.99
2023-05-05T23:25:27.413Z,11.99
2023-05-05T23:27:54.081Z,12.01
2023-05-05T23:30:21.880Z,12.02
2023-05-05T23:32:48.384Z,12.02
2023-05-05T23:35:15.168Z,12.03
2023-05-05T23:37:41.676Z,12.01
2023-05-05T23:40:08.697Z,12.01
2023-05-05T23:42:36.208Z,12.00
2023-05-05T23:45:03.571Z,11.99
2023-05-05T23:47:30.298Z,11.99
2023-05-05T23:49:56.826Z,12.00
2023-05-05T23:52:23.400Z,12.01
2023-05-05T23:54:49.887Z,12.02
2023-05-05T23:57:17.386Z,12.01
2023-05-05T23:59:46.845Z,12.00
